createdAt,value
2022-08-28T00:02:02.499Z,97719.72
2022-08-28T00:05:06.276Z,97726.22
2022-08-28T00:08:10.581Z,97714.06
2022-08-28T00:11:13.080Z,97716.09
2022-08-28T00:14:16.658Z,97718.03
2022-08-28T00:17:18.905Z,97733.84
2022-08-28T00:20:21.210Z,97740.50
2022-08-28T00:23:24.157Z,97743.41
2022-08-28T00:26:47.319Z,97738.25
2022-08-28T00:29:51.517Z,97729.13
2022-08-28T00:32:55.372Z,97726.84
2022-08-28T00:35:58.100Z,97735.16
2022-08-28T00:39:00.558Z,97754.00
2022-08-28T00:42:02.844Z,97777.03
2022-08-28T00:45:06.533Z,97795.66
2022-08-28T00:48:08.803Z,97790.72
2022-08-28T00:51:31.047Z,97787.88
2022-08-28T00:54:35.985Z,97778.88
2022-08-28T00:57:45.269Z,97759.78
2022-08-28T01:00:47.089Z,97766.88
2022-08-28T01:03:48.875Z,97766.38
2022-08-28T01:06:54.611Z,97769.03
2022-08-28T01:09:56.970Z,97770.28
2022-08-28T01:12:59.469Z,97788.69
2022-08-28T01:16:03.759Z,97793.84
2022-08-28T01:19:10.461Z,97802.00
2022-08-28T01:22:29.693Z,97813.88
2022-08-28T01:25:36.623Z,97823.22
2022-08-28T01:28:38.752Z,97826.66
2022-08-28T01:31:41.242Z,97845.34
2022-08-28T01:34:43.186Z,97857.38
2022-08-28T01:37:48.135Z,97871.06
2022-08-28T01:40:53.434Z,97877.44
2022-08-28T01:43:56.228Z,97875.63
2022-08-28T01:46:58.586Z,97879.56
2022-08-28T01:50:00.535Z,97872.41
2022-08-28T01:53:06.636Z,97888.41
2022-08-28T01:56:15.894Z,97892.91
2022-08-28T01:59:18.348Z,97879.84
2022-08-28T02:02:20.737Z,97872.28
2022-08-28T02:05:24.856Z,97859.59
2022-08-28T02:08:27.034Z,97850.38
2022-08-28T02:11:30.576Z,97837.69
2022-08-28T02:14:33.417Z,97836.06
2022-08-28T02:17:35.348Z,97839.72
2022-08-28T02:20:38.055Z,97829.09
2022-08-28T02:23:42.710Z,97822.16
2022-08-28T02:26:45.220Z,97797.59
2022-08-28T02:29:51.130Z,97763.88
2022-08-28T02:37:08.650Z,97698.72
2022-08-28T02:40:20.787Z,97681.31
2022-08-28T02:43:43.645Z,97661.72
2022-08-28T02:46:53.960Z,97663.97
2022-08-28T02:50:06.748Z,97661.28
2022-08-28T02:53:23.998Z,97673.50
2022-08-28T02:56:35.976Z,97672.03
2022-08-28T02:59:44.899Z,97670.78
2022-08-28T03:02:59.083Z,97667.53
2022-08-28T03:06:09.077Z,97685.06
2022-08-28T03:09:20.455Z,97692.78
2022-08-28T03:12:25.003Z,97700.53
2022-08-28T03:15:27.124Z,97711.50
2022-08-28T03:18:30.752Z,97706.81
2022-08-28T03:21:35.071Z,97711.09
2022-08-28T03:24:37.890Z,97711.91
2022-08-28T03:27:43.530Z,97716.00
2022-08-28T03:30:46.094Z,97710.25
2022-08-28T03:33:49.246Z,97704.94
2022-08-28T03:36:51.588Z,97699.56
2022-08-28T03:39:59.537Z,97703.00
2022-08-28T03:43:03.954Z,97693.19
2022-08-28T03:46:19.769Z,97701.59
2022-08-28T03:49:23.157Z,97695.84
2022-08-28T03:52:35.547Z,97701.97
2022-08-28T03:55:43.298Z,97699.88
2022-08-28T03:58:45.297Z,97701.94
2022-08-28T04:01:48.831Z,97701.34
2022-08-28T04:04:51.987Z,97701.94
2022-08-28T04:07:56.248Z,97705.66
2022-08-28T04:10:59.724Z,97704.84
2022-08-28T04:14:02.442Z,97703.84
2022-08-28T04:17:05.518Z,97707.47
2022-08-28T04:20:12.187Z,97704.59
2022-08-28T04:23:13.994Z,97706.13
2022-08-28T04:26:20.670Z,97695.56
2022-08-28T04:29:23.331Z,97698.09
2022-08-28T04:32:26.259Z,97692.50
2022-08-28T04:35:29.200Z,97689.81
2022-08-28T04:38:33.407Z,97681.41
2022-08-28T04:41:40.278Z,97686.91
2022-08-28T04:44:43.948Z,97686.31
2022-08-28T04:47:46.141Z,97686.13
2022-08-28T04:50:50.974Z,97685.88
2022-08-28T04:53:53.235Z,97690.78
2022-08-28T04:56:55.549Z,97687.44
2022-08-28T04:59:59.162Z,97691.13
2022-08-28T05:03:16.121Z,97688.25
2022-08-28T05:06:18.499Z,97686.44
2022-08-28T05:09:21.275Z,97693.47
2022-08-28T05:12:24.502Z,97690.09
2022-08-28T05:15:28.115Z,97680.13
2022-08-28T05:18:32.648Z,97686.44
2022-08-28T05:21:35.591Z,97679.06
2022-08-28T05:24:38.582Z,97691.66
2022-08-28T05:27:43.108Z,97688.72
2022-08-28T05:30:45.814Z,97694.88
2022-08-28T05:33:52.598Z,97698.91
2022-08-28T05:36:54.690Z,97706.38
2022-08-28T05:39:57.637Z,97701.94
2022-08-28T05:43:00.818Z,97716.00
2022-08-28T05:46:10.769Z,97719.31
2022-08-28T05:49:16.118Z,97723.63
2022-08-28T05:52:18.729Z,97721.25
2022-08-28T05:55:59.521Z,97730.22
2022-08-28T05:59:10.993Z,97731.22
2022-08-28T06:02:24.705Z,97734.16
2022-08-28T06:05:27.412Z,97738.16
2022-08-28T06:08:30.399Z,97732.47
2022-08-28T06:11:32.894Z,97735.34
2022-08-28T06:14:35.721Z,97733.00
2022-08-28T06:17:38.247Z,97728.59
2022-08-28T06:20:43.574Z,97744.25
2022-08-28T06:23:46.201Z,97738.63
2022-08-28T06:26:49.679Z,97736.22
2022-08-28T06:29:52.184Z,97733.38
2022-08-28T06:32:55.348Z,97740.63
2022-08-28T06:35:58.142Z,97742.41
2022-08-28T06:39:02.352Z,97734.94
2022-08-28T06:42:06.054Z,97749.66
2022-08-28T06:45:08.850Z,97739.59
2022-08-28T06:48:16.949Z,97743.09
2022-08-28T06:51:20.465Z,97737.66
2022-08-28T06:54:27.099Z,97751.56
2022-08-28T06:57:31.834Z,97751.66
2022-08-28T07:00:35.659Z,97752.09
2022-08-28T07:03:42.523Z,97749.28
2022-08-28T07:06:53.830Z,97751.00
2022-08-28T07:09:56.515Z,97756.28
2022-08-28T07:13:01.547Z,97761.88
2022-08-28T07:16:04.884Z,97763.50
2022-08-28T07:19:09.996Z,97767.81
2022-08-28T07:22:12.843Z,97768.63
2022-08-28T07:25:18.392Z,97761.91
2022-08-28T07:28:21.260Z,97764.41
2022-08-28T07:31:26.579Z,97770.81
2022-08-28T07:34:39.138Z,97773.72
2022-08-28T07:37:44.493Z,97775.09
2022-08-28T07:40:49.848Z,97776.72
2022-08-28T07:44:11.173Z,97781.16
2022-08-28T07:47:14.832Z,97778.22
2022-08-28T07:50:17.582Z,97774.59
2022-08-28T07:53:20.502Z,97779.72
2022-08-28T07:56:23.071Z,97781.97
2022-08-28T07:59:27.598Z,97783.78
2022-08-28T08:02:34.037Z,97781.72
2022-08-28T08:05:36.245Z,97787.50
2022-08-28T08:08:41.092Z,97791.19
2022-08-28T08:11:44.450Z,97784.09
2022-08-28T08:14:50.371Z,97784.91
2022-08-28T08:17:53.416Z,97795.88
2022-08-28T08:20:57.151Z,97788.53
2022-08-28T08:24:02.492Z,97797.06
2022-08-28T08:27:07.084Z,97798.47
2022-08-28T08:30:10.766Z,97803.81
2022-08-28T08:33:14.242Z,97807.84
2022-08-28T08:36:18.465Z,97806.94
2022-08-28T08:39:22.292Z,97814.19
2022-08-28T08:42:27.183Z,97818.63
2022-08-28T08:45:31.663Z,97818.78
2022-08-28T08:48:35.337Z,97819.03
2022-08-28T08:52:16.168Z,97814.66
2022-08-28T08:55:36.312Z,97820.16
2022-08-28T08:58:48.966Z,97825.22
2022-08-28T09:01:56.466Z,97817.84
2022-08-28T09:05:08.292Z,97828.72
2022-08-28T09:08:18.061Z,97824.53
2022-08-28T09:11:41.200Z,97828.84
2022-08-28T09:15:10.575Z,97838.72
2022-08-28T09:18:15.364Z,97841.13
2022-08-28T09:21:33.076Z,97844.53
2022-08-28T09:24:37.815Z,97846.16
2022-08-28T09:27:53.390Z,97850.84
2022-08-28T09:31:11.722Z,97856.28
2022-08-28T09:34:38.650Z,97863.84
2022-08-28T09:37:43.312Z,97863.88
2022-08-28T09:41:05.664Z,97859.22
2022-08-28T09:44:15.433Z,97859.91
2022-08-28T09:47:54.630Z,97863.03
2022-08-28T09:51:08.289Z,97864.59
2022-08-28T09:54:23.641Z,97858.78
2022-08-28T09:57:26.625Z,97861.50
2022-08-28T10:00:34.039Z,97855.94
2022-08-28T10:04:05.121Z,97855.19
2022-08-28T10:07:29.352Z,97862.03
2022-08-28T10:10:42.544Z,97861.22
2022-08-28T10:14:20.101Z,97862.38
2022-08-28T10:17:41.564Z,97858.66
2022-08-28T10:21:02.832Z,97862.50
2022-08-28T10:24:14.257Z,97861.22
2022-08-28T10:27:36.359Z,97864.84
2022-08-28T10:30:45.130Z,97866.69
2022-08-28T10:34:05.343Z,97867.72
2022-08-28T10:37:23.673Z,97856.66
2022-08-28T10:41:02.072Z,97865.47
2022-08-28T10:44:05.886Z,97858.16
2022-08-28T10:47:09.577Z,97855.41
2022-08-28T10:50:52.593Z,97860.88
2022-08-28T10:54:04.265Z,97850.34
2022-08-28T10:57:36.125Z,97858.13
2022-08-28T11:00:44.408Z,97855.31
2022-08-28T11:03:50.646Z,97857.22
2022-08-28T11:06:59.284Z,97851.94
2022-08-28T11:10:20.789Z,97848.88
2022-08-28T11:13:46.817Z,97852.69
2022-08-28T11:16:50.308Z,97851.44
2022-08-28T11:20:25.653Z,97848.56
2022-08-28T11:23:39.142Z,97853.09
2022-08-28T11:26:49.623Z,97853.41
2022-08-28T11:30:11.334Z,97860.31
2022-08-28T11:33:36.306Z,97855.75
2022-08-28T11:36:38.720Z,97862.19
2022-08-28T11:39:42.193Z,97862.38
2022-08-28T11:42:48.978Z,97863.47
2022-08-28T11:45:55.286Z,97857.72
2022-08-28T11:48:58.782Z,97856.22
2022-08-28T11:52:10.333Z,97862.59
2022-08-28T11:55:33.669Z,97855.31
2022-08-28T11:58:50.560Z,97862.72
2022-08-28T12:01:52.883Z,97857.63
2022-08-28T12:04:55.036Z,97857.81
2022-08-28T12:07:58.242Z,97849.59
2022-08-28T12:11:00.403Z,97837.94
2022-08-28T12:14:02.573Z,97844.91
2022-08-28T12:17:09.962Z,97843.56
2022-08-28T12:20:26.626Z,97834.75
2022-08-28T12:23:31.888Z,97829.28
2022-08-28T12:26:38.694Z,97832.47
2022-08-28T12:29:52.593Z,97828.22
2022-08-28T12:33:13.572Z,97823.53
2022-08-28T12:36:17.585Z,97828.66
2022-08-28T12:39:19.596Z,97820.25
2022-08-28T12:42:27.249Z,97822.28
2022-08-28T12:45:52.386Z,97824.47
2022-08-28T12:49:00.699Z,97822.44
2022-08-28T12:52:18.191Z,97811.25
2022-08-28T12:55:24.464Z,97814.16
2022-08-28T12:58:32.515Z,97816.66
2022-08-28T13:01:35.756Z,97806.38
2022-08-28T13:04:43.173Z,97798.44
2022-08-28T13:07:48.902Z,97804.69
2022-08-28T13:10:52.275Z,97807.81
2022-08-28T13:13:54.421Z,97791.78
2022-08-28T13:16:57.467Z,97804.63
2022-08-28T13:20:07.655Z,97800.31
2022-08-28T13:23:30.936Z,97794.72
2022-08-28T13:26:35.694Z,97796.50
2022-08-28T13:29:39.871Z,97796.03
2022-08-28T13:32:56.589Z,97795.94
2022-08-28T13:36:20.279Z,97795.75
2022-08-28T13:39:23.366Z,97799.53
2022-08-28T13:42:25.694Z,97798.94
2022-08-28T13:45:31.577Z,97796.66
2022-08-28T13:48:45.751Z,97788.84
2022-08-28T13:51:48.989Z,97786.63
2022-08-28T13:54:56.375Z,97793.56
2022-08-28T13:58:00.524Z,97803.47
2022-08-28T14:01:04.589Z,97802.44
2022-08-28T14:04:07.893Z,97800.78
2022-08-28T14:07:11.919Z,97801.13
2022-08-28T14:10:14.408Z,97802.69
2022-08-28T14:13:17.809Z,97803.34
2022-08-28T14:16:20.259Z,97795.63
2022-08-28T14:19:23.006Z,97791.47
2022-08-28T14:22:25.215Z,97792.16
2022-08-28T14:25:27.522Z,97791.31
2022-08-28T14:28:30.663Z,97785.44
2022-08-28T14:31:36.903Z,97784.69
2022-08-28T14:34:43.854Z,97794.53
2022-08-28T14:37:47.270Z,97787.22
2022-08-28T14:40:49.591Z,97790.34
2022-08-28T14:43:54.956Z,97786.31
2022-08-28T14:46:57.731Z,97793.16
2022-08-28T14:50:00.883Z,97793.72
2022-08-28T14:53:06.633Z,97777.06
2022-08-28T14:56:14.505Z,97782.66
2022-08-28T14:59:24.489Z,97783.75
2022-08-28T15:02:27.769Z,97784.41
2022-08-28T15:05:33.528Z,97777.28
2022-08-28T15:08:38.299Z,97771.94
2022-08-28T15:11:41.725Z,97778.31
2022-08-28T15:14:51.362Z,97776.91
2022-08-28T15:18:03.394Z,97785.69
2022-08-28T15:21:08.168Z,97781.84
2022-08-28T15:24:11.261Z,97779.53
2022-08-28T15:27:13.379Z,97773.69
2022-08-28T15:30:18.444Z,97775.81
2022-08-28T15:33:21.152Z,97777.63
2022-08-28T15:36:24.750Z,97772.59
2022-08-28T15:39:47.070Z,97783.00
2022-08-28T15:42:50.497Z,97772.56
2022-08-28T15:45:56.068Z,97778.97
2022-08-28T15:48:59.383Z,97779.72
2022-08-28T15:52:01.795Z,97794.72
2022-08-28T15:55:07.848Z,97791.31
2022-08-28T15:58:13.737Z,97792.47
2022-08-28T16:01:16.958Z,97792.47
2022-08-28T16:04:19.589Z,97794.19
2022-08-28T16:07:23.465Z,97790.66
2022-08-28T16:10:26.272Z,97784.16
2022-08-28T16:13:28.814Z,97792.50
2022-08-28T16:16:31.671Z,97788.97
2022-08-28T16:19:34.849Z,97791.47
2022-08-28T16:22:44.529Z,97796.50
2022-08-28T16:25:47.753Z,97795.13
2022-08-28T16:28:50.210Z,97792.41
2022-08-28T16:31:53.820Z,97792.03
2022-08-28T16:34:57.489Z,97786.19
2022-08-28T17:17:20.662Z,97836.13
2022-08-28T17:20:41.349Z,97843.66
2022-08-28T17:23:46.887Z,97840.78
2022-08-28T17:26:49.617Z,97839.34
2022-08-28T17:29:53.130Z,97844.19
2022-08-28T17:32:55.359Z,97842.56
2022-08-28T17:36:03.431Z,97843.81
2022-08-28T17:39:08.904Z,97849.06
2022-08-28T17:42:14.117Z,97841.78
2022-08-28T17:45:19.824Z,97855.41
2022-08-28T17:48:26.324Z,97856.38
2022-08-28T17:51:42.607Z,97863.97
2022-08-28T17:54:47.066Z,97863.91
2022-08-28T17:57:50.359Z,97864.03
2022-08-28T18:00:52.703Z,97856.84
2022-08-28T18:03:55.787Z,97863.94
2022-08-28T18:06:58.789Z,97871.75
2022-08-28T18:10:00.692Z,97874.31
2022-08-28T18:13:05.272Z,97875.41
2022-08-28T18:16:10.988Z,97879.34
2022-08-28T18:19:14.544Z,97876.94
2022-08-28T18:22:16.927Z,97870.84
2022-08-28T18:25:40.681Z,97869.28
2022-08-28T18:28:45.535Z,97871.34
2022-08-28T18:31:47.856Z,97874.25
2022-08-28T18:34:50.470Z,97884.59
2022-08-28T18:37:52.891Z,97885.88
2022-08-28T18:40:56.877Z,97886.72
2022-08-28T18:43:59.057Z,97893.72
2022-08-28T18:47:07.283Z,97891.16
2022-08-28T18:50:10.246Z,97906.59
2022-08-28T18:53:14.182Z,97905.34
2022-08-28T18:56:16.933Z,97910.69
2022-08-28T18:59:19.528Z,97920.91
2022-08-28T19:02:22.290Z,97926.84
2022-08-28T19:05:24.663Z,97923.44
2022-08-28T19:08:28.062Z,97915.84
2022-08-28T19:11:31.628Z,97922.19
2022-08-28T19:14:35.643Z,97919.34
2022-08-28T19:17:39.074Z,97930.59
2022-08-28T19:20:41.755Z,97927.94
2022-08-28T19:23:55.233Z,97921.41
2022-08-28T19:26:58.237Z,97924.88
2022-08-28T19:30:00.479Z,97927.75
2022-08-28T19:33:07.610Z,97921.38
2022-08-28T19:36:14.318Z,97917.41
2022-08-28T19:39:17.865Z,97925.81
2022-08-28T19:42:20.840Z,97918.88
2022-08-28T19:45:23.601Z,97912.75
2022-08-28T19:48:25.979Z,97911.72
2022-08-28T19:51:41.779Z,97907.00
2022-08-28T19:54:45.531Z,97904.97
2022-08-28T19:57:49.086Z,97910.31
2022-08-28T20:00:53.061Z,97920.97
2022-08-28T20:03:57.185Z,97923.63
2022-08-28T20:07:00.741Z,97932.66
2022-08-28T20:10:03.599Z,97928.97
2022-08-28T20:13:06.299Z,97936.75
2022-08-28T20:16:09.037Z,97942.72
2022-08-28T20:19:19.368Z,97934.97
2022-08-28T20:22:22.177Z,97938.22
2022-08-28T20:25:24.862Z,97936.38
2022-08-28T20:28:27.117Z,97935.56
2022-08-28T20:31:29.315Z,97933.09
2022-08-28T20:34:31.494Z,97940.03
2022-08-28T20:37:34.842Z,97938.41
2022-08-28T20:40:47.455Z,97942.28
2022-08-28T20:43:50.787Z,97952.94
2022-08-28T20:46:54.693Z,97946.78
2022-08-28T20:49:57.177Z,97952.09
2022-08-28T20:53:02.847Z,97966.44
2022-08-28T20:56:08.209Z,97965.19
2022-08-28T20:59:10.865Z,97969.84
2022-08-28T21:02:17.429Z,97976.38
2022-08-28T21:05:20.031Z,97971.06
2022-08-28T21:08:22.104Z,97973.72
2022-08-28T21:11:25.695Z,97968.59
2022-08-28T21:14:28.916Z,97969.56
2022-08-28T21:17:31.553Z,97971.47
2022-08-28T21:20:33.939Z,97966.78
2022-08-28T21:23:36.410Z,97958.47
2022-08-28T21:26:43.455Z,97954.97
2022-08-28T21:29:46.254Z,97966.25
2022-08-28T21:32:51.866Z,97965.28
2022-08-28T21:35:54.864Z,97965.72
2022-08-28T21:38:58.526Z,97963.69
2022-08-28T21:42:00.914Z,97963.69
2022-08-28T21:45:04.693Z,97966.97
2022-08-28T21:48:08.736Z,97972.31
2022-08-28T21:51:14.844Z,97969.03
2022-08-28T21:54:19.871Z,97974.75
2022-08-28T21:57:22.090Z,97959.59
2022-08-28T22:00:24.421Z,97970.25
2022-08-28T22:03:27.673Z,97964.09
2022-08-28T22:06:29.965Z,97950.56
2022-08-28T22:09:34.060Z,97957.97
2022-08-28T22:12:36.483Z,97958.75
2022-08-28T22:15:40.805Z,97956.31
2022-08-28T22:18:43.062Z,97964.28
2022-08-28T22:22:03.640Z,97951.00
2022-08-28T22:25:06.228Z,97964.31
2022-08-28T22:28:09.466Z,97965.94
2022-08-28T22:31:11.519Z,97959.56
2022-08-28T22:34:15.018Z,97959.19
2022-08-28T22:37:23.497Z,97960.81
2022-08-28T22:40:25.497Z,97972.72
2022-08-28T22:43:27.836Z,97952.25
2022-08-28T22:46:30.123Z,97965.75
2022-08-28T22:49:32.147Z,97966.56
2022-08-28T22:52:34.288Z,97971.88
2022-08-28T22:55:42.725Z,97975.16
2022-08-28T22:58:45.304Z,97980.31
2022-08-28T23:01:47.473Z,97987.84
2022-08-28T23:04:52.085Z,97997.50
2022-08-28T23:07:55.617Z,97997.50
2022-08-28T23:10:59.398Z,97993.38
2022-08-28T23:14:01.637Z,97993.16
2022-08-28T23:17:03.717Z,98006.72
2022-08-28T23:20:08.249Z,98004.03
2022-08-28T23:23:12.295Z,98006.28
2022-08-28T23:26:18.354Z,98004.84
2022-08-28T23:29:20.598Z,98007.91
2022-08-28T23:32:23.057Z,98007.09
2022-08-28T23:35:25.380Z,98010.78
2022-08-28T23:38:28.100Z,98011.34
2022-08-28T23:41:32.622Z,98017.13
2022-08-28T23:44:35.141Z,98015.28
2022-08-28T23:47:40.359Z,98021.84
2022-08-28T23:50:43.238Z,98018.94
2022-08-28T23:53:47.576Z,98014.47
2022-08-28T23:56:49.821Z,98013.06
2022-08-28T23:59:52.964Z,98012.84
